createdAt,value
2023-04-30T00:00:02.126Z,83.4
2023-04-30T00:01:01.682Z,83.3
2023-04-30T00:02:04.031Z,83.1
2023-04-30T00:03:02.086Z,83
2023-04-30T00:04:01.707Z,83
2023-04-30T00:05:01.536Z,83.5
2023-04-30T00:06:02.305Z,83.4
2023-04-30T00:07:03.591Z,83.5
2023-04-30T00:08:03.271Z,83.5
2023-04-30T00:09:01.416Z,83.4
2023-04-30T00:10:02.187Z,83.5
2023-04-30T00:11:02.012Z,83.8
2023-04-30T00:12:02.245Z,83.8
2023-04-30T00:13:02.079Z,83.6
2023-04-30T00:14:01.946Z,83.6
2023-04-30T00:15:03.770Z,84
2023-04-30T00:16:02.041Z,84.2
2023-04-30T00:17:01.860Z,84
2023-04-30T00:18:03.722Z,83.9
2023-04-30T00:19:01.379Z,83.6
2023-04-30T00:20:03.057Z,83.9
2023-04-30T00:21:01.457Z,83.8
2023-04-30T00:22:01.691Z,83.8
2023-04-30T00:23:01.392Z,83.7
2023-04-30T00:24:01.850Z,83.6
2023-04-30T00:26:01.792Z,83.3
2023-04-30T00:27:02.267Z,83.1
2023-04-30T00:28:01.764Z,83.1
2023-04-30T00:29:02.265Z,83
2023-04-30T00:30:01.719Z,82.8
2023-04-30T00:31:02.193Z,82.7
2023-04-30T00:32:01.785Z,82.5
2023-04-30T00:33:02.291Z,82.4
2023-04-30T00:34:01.626Z,82.4
2023-04-30T00:35:03.817Z,82.4
2023-04-30T00:36:03.318Z,82.5
2023-04-30T00:37:02.097Z,82.5
2023-04-30T00:38:01.531Z,82.4
2023-04-30T00:39:03.682Z,82.5
2023-04-30T00:40:02.506Z,82.3
2023-04-30T00:41:03.693Z,82.3
2023-04-30T00:42:01.452Z,82.4
2023-04-30T00:43:01.936Z,82.3
2023-04-30T00:44:01.460Z,82.3
2023-04-30T00:45:01.972Z,82.2
2023-04-30T00:46:01.400Z,82.1
2023-04-30T00:47:01.851Z,82
2023-04-30T00:48:01.421Z,82
2023-04-30T00:49:01.854Z,82
2023-04-30T00:50:01.388Z,82
2023-04-30T00:51:03.525Z,82.2
2023-04-30T00:52:04.093Z,82.5
2023-04-30T00:53:01.947Z,82.6
2023-04-30T00:54:01.615Z,82.5
2023-04-30T00:55:01.414Z,82.4
2023-04-30T00:56:02.118Z,82.4
2023-04-30T00:57:01.687Z,82.3
2023-04-30T00:58:02.336Z,82.3
2023-04-30T00:59:03.524Z,82.3
2023-04-30T01:00:01.419Z,82.3
2023-04-30T01:01:02.072Z,82.3
2023-04-30T01:02:01.602Z,82.6
2023-04-30T01:03:02.917Z,82.6
2023-04-30T01:04:01.880Z,82.6
2023-04-30T01:05:01.404Z,82.5
2023-04-30T01:06:02.105Z,82.5
2023-04-30T01:07:01.594Z,82.4
2023-04-30T01:08:02.302Z,82.4
2023-04-30T01:09:01.565Z,82.4
2023-04-30T01:10:02.253Z,82.3
2023-04-30T01:11:01.842Z,82.3
2023-04-30T01:12:01.522Z,82.4
2023-04-30T01:13:03.945Z,82.2
2023-04-30T01:14:02.009Z,82.3
2023-04-30T01:15:01.722Z,82.3
2023-04-30T01:16:01.403Z,82.4
2023-04-30T01:17:03.938Z,82.3
2023-04-30T01:18:01.735Z,82.4
2023-04-30T01:19:02.375Z,82.2
2023-04-30T01:20:03.753Z,82
2023-04-30T01:21:01.617Z,82.1
2023-04-30T01:22:02.241Z,82.1
2023-04-30T01:23:02.347Z,82.3
2023-04-30T01:24:02.090Z,82.1
2023-04-30T01:25:03.875Z,82.1
2023-04-30T01:26:01.769Z,82.1
2023-04-30T01:27:01.526Z,82.3
2023-04-30T01:28:01.533Z,82.5
2023-04-30T01:29:02.088Z,82.7
2023-04-30T01:30:01.914Z,82.7
2023-04-30T01:31:01.379Z,82.6
2023-04-30T01:32:02.280Z,82.6
2023-04-30T01:33:02.378Z,82.7
2023-04-30T01:34:02.262Z,82.5
2023-04-30T01:35:03.219Z,82.6
2023-04-30T01:36:02.151Z,82.7
2023-04-30T01:37:03.362Z,82.8
2023-04-30T01:38:04.576Z,82.9
2023-04-30T01:39:02.094Z,82.9
2023-04-30T01:40:01.755Z,82.9
2023-04-30T01:41:03.988Z,83
2023-04-30T01:42:03.444Z,82.7
2023-04-30T01:43:01.365Z,82.8
2023-04-30T01:44:01.858Z,83.3
2023-04-30T01:45:01.440Z,83.4
2023-04-30T01:46:02.043Z,83.5
2023-04-30T01:47:01.507Z,83.5
2023-04-30T01:48:02.131Z,83.4
2023-04-30T01:49:01.660Z,83.3
2023-04-30T01:50:02.224Z,83.4
2023-04-30T01:51:03.513Z,83.4
2023-04-30T01:52:01.694Z,83.3
2023-04-30T01:53:02.415Z,83.3
2023-04-30T01:54:01.885Z,83.4
2023-04-30T01:55:01.450Z,83.5
2023-04-30T01:56:03.672Z,83.5
2023-04-30T01:57:03.192Z,83.5
2023-04-30T01:58:02.073Z,83.5
2023-04-30T01:59:03.303Z,83.4
2023-04-30T02:00:02.081Z,83.5
2023-04-30T02:01:01.677Z,83.7
2023-04-30T02:02:02.261Z,83.6
2023-04-30T02:03:01.844Z,83.5
2023-04-30T02:04:02.384Z,83.4
2023-04-30T02:05:01.843Z,83.4
2023-04-30T02:06:01.403Z,83.1
2023-04-30T02:07:01.929Z,83.1
2023-04-30T02:08:01.451Z,83.1
2023-04-30T02:09:02.017Z,83
2023-04-30T02:10:01.759Z,82.9
2023-04-30T02:11:02.166Z,82.7
2023-04-30T02:12:01.757Z,82.2
2023-04-30T02:13:01.287Z,82
2023-04-30T02:14:01.868Z,81.8
2023-04-30T02:15:03.124Z,81.6
2023-04-30T02:16:02.033Z,81.6
2023-04-30T02:17:01.514Z,81.6
2023-04-30T02:18:03.784Z,81.5
2023-04-30T02:19:03.310Z,81.3
2023-04-30T02:20:02.231Z,81.4
2023-04-30T02:21:01.996Z,81.3
2023-04-30T02:22:01.515Z,81.4
2023-04-30T02:23:02.963Z,81.5
2023-04-30T02:24:01.832Z,81.6
2023-04-30T02:25:01.373Z,81.6
2023-04-30T02:26:03.581Z,81.8
2023-04-30T02:27:03.099Z,81.8
2023-04-30T02:28:02.001Z,81.9
2023-04-30T02:29:01.518Z,81.9
2023-04-30T02:30:02.124Z,82.1
2023-04-30T02:31:01.597Z,82
2023-04-30T02:32:02.377Z,82
2023-04-30T02:33:02.197Z,82.2
2023-04-30T02:34:01.607Z,82.2
2023-04-30T02:35:03.861Z,82.2
2023-04-30T02:36:01.927Z,82.3
2023-04-30T02:37:01.684Z,82.2
2023-04-30T02:38:01.388Z,82.2
2023-04-30T02:39:01.852Z,82.3
2023-04-30T02:40:01.360Z,82.2
2023-04-30T02:41:02.022Z,82.2
2023-04-30T02:42:01.609Z,82.4
2023-04-30T02:43:02.263Z,82.4
2023-04-30T02:44:01.933Z,82.4
2023-04-30T02:45:02.160Z,82.5
2023-04-30T02:46:03.360Z,82.3
2023-04-30T02:47:02.082Z,82.4
2023-04-30T02:48:01.608Z,82.5
2023-04-30T02:49:03.669Z,82.5
2023-04-30T02:50:01.558Z,82.6
2023-04-30T02:51:02.036Z,82.6
2023-04-30T02:52:01.569Z,82.7
2023-04-30T02:53:02.205Z,82.8
2023-04-30T02:54:01.859Z,82.8
2023-04-30T02:55:01.799Z,82.6
2023-04-30T02:56:02.396Z,82.7
2023-04-30T02:57:03.557Z,82.8
2023-04-30T02:58:01.455Z,82.8
2023-04-30T02:59:01.370Z,82.7
2023-04-30T03:00:03.699Z,82.9
2023-04-30T03:01:01.597Z,83.3
2023-04-30T03:02:02.193Z,83.7
2023-04-30T03:03:03.970Z,83.8
2023-04-30T03:04:01.687Z,84.1
2023-04-30T03:05:01.438Z,84.4
2023-04-30T03:06:03.976Z,84.5
2023-04-30T03:07:02.086Z,84.7
2023-04-30T03:08:03.646Z,84.8
2023-04-30T03:09:01.521Z,85
2023-04-30T03:10:02.164Z,85
2023-04-30T03:11:01.751Z,85
2023-04-30T03:12:03.188Z,85
2023-04-30T03:13:02.181Z,85
2023-04-30T03:14:01.785Z,85.1
2023-04-30T03:15:01.426Z,84.9
2023-04-30T03:16:02.078Z,84.8
2023-04-30T03:17:01.527Z,84.8
2023-04-30T03:18:01.593Z,84.8
2023-04-30T03:19:02.070Z,84.9
2023-04-30T03:20:01.665Z,84.9
2023-04-30T03:21:02.216Z,85
2023-04-30T03:22:01.822Z,85.1
2023-04-30T03:23:01.481Z,85.1
2023-04-30T03:24:02.084Z,85.1
2023-04-30T03:25:01.751Z,85.1
2023-04-30T03:26:01.377Z,85.3
2023-04-30T03:27:03.680Z,85.2
2023-04-30T03:28:01.623Z,85.3
2023-04-30T03:29:02.227Z,85.3
2023-04-30T03:30:01.748Z,85.3
2023-04-30T03:31:01.475Z,85.4
2023-04-30T03:32:02.076Z,85.5
2023-04-30T03:33:01.671Z,85.5
2023-04-30T03:34:01.367Z,85.4
2023-04-30T03:35:02.093Z,85.3
2023-04-30T03:36:01.731Z,85.3
2023-04-30T03:37:02.092Z,85.3
2023-04-30T03:38:01.755Z,85.5
2023-04-30T03:39:04.060Z,85.6
2023-04-30T03:40:01.927Z,85.7
2023-04-30T03:41:03.349Z,85.7
2023-04-30T03:42:02.222Z,85.7
2023-04-30T03:43:01.830Z,85.8
2023-04-30T03:44:05.918Z,85.8
2023-04-30T03:45:01.933Z,85.8
2023-04-30T03:46:01.564Z,85.9
2023-04-30T03:47:02.170Z,85.8
2023-04-30T03:48:01.878Z,85.8
2023-04-30T03:49:01.605Z,85.8
2023-04-30T03:51:02.016Z,85.8
2023-04-30T03:52:01.604Z,85.8
2023-04-30T03:53:01.850Z,85.9
2023-04-30T03:54:03.475Z,86
2023-04-30T03:55:01.651Z,86.2
2023-04-30T03:56:03.549Z,86.1
2023-04-30T03:57:03.603Z,86.1
2023-04-30T03:58:01.428Z,86.2
2023-04-30T03:59:01.912Z,86.2
2023-04-30T04:00:03.029Z,86.2
2023-04-30T04:01:01.836Z,86.3
2023-04-30T04:02:02.385Z,86.4
2023-04-30T04:03:02.822Z,86.4
2023-04-30T04:04:01.872Z,86.3
2023-04-30T04:05:01.479Z,86.4
2023-04-30T04:06:02.083Z,86.3
2023-04-30T04:07:01.609Z,86.3
2023-04-30T04:08:02.726Z,86.3
2023-04-30T04:09:03.448Z,86.3
2023-04-30T04:10:02.175Z,86.2
2023-04-30T04:11:01.764Z,86.3
2023-04-30T04:12:01.352Z,86.3
2023-04-30T04:13:02.018Z,86.4
2023-04-30T04:14:03.378Z,86.4
2023-04-30T04:15:02.128Z,86.3
2023-04-30T04:16:01.626Z,86.4
2023-04-30T04:17:02.086Z,86.6
2023-04-30T04:18:06.719Z,86.7
2023-04-30T04:19:02.269Z,86.7
2023-04-30T04:20:01.789Z,86.8
2023-04-30T04:21:02.274Z,86.9
2023-04-30T04:22:03.438Z,86.9
2023-04-30T04:23:01.378Z,86.9
2023-04-30T04:24:02.086Z,86.9
2023-04-30T04:25:01.798Z,86.9
2023-04-30T04:26:04.292Z,86.9
2023-04-30T04:27:03.596Z,86.9
2023-04-30T04:28:03.608Z,87
2023-04-30T04:29:01.685Z,87
2023-04-30T04:30:01.392Z,87
2023-04-30T04:31:03.928Z,86.9
2023-04-30T04:32:01.874Z,87
2023-04-30T04:33:01.806Z,86.9
2023-04-30T04:34:01.607Z,86.9
2023-04-30T04:35:02.364Z,86.8
2023-04-30T04:36:03.593Z,86.9
2023-04-30T04:37:01.539Z,86.9
2023-04-30T04:38:02.199Z,86.8
2023-04-30T04:39:01.751Z,86.8
2023-04-30T04:40:01.393Z,86.8
2023-04-30T04:41:02.006Z,86.8
2023-04-30T04:42:03.274Z,86.8
2023-04-30T04:43:02.233Z,86.7
2023-04-30T04:44:02.071Z,86.7
2023-04-30T04:45:03.290Z,86.5
2023-04-30T04:46:02.332Z,86.5
2023-04-30T04:47:01.914Z,86.6
2023-04-30T04:48:01.618Z,86.7
2023-04-30T04:49:02.358Z,86.8
2023-04-30T04:50:01.939Z,86.8
2023-04-30T04:51:01.709Z,86.7
2023-04-30T04:52:02.243Z,86.8
2023-04-30T04:53:01.844Z,86.9
2023-04-30T04:54:01.535Z,87
2023-04-30T04:55:04.567Z,86.9
2023-04-30T04:56:02.252Z,87
2023-04-30T04:57:01.829Z,87
2023-04-30T04:58:01.516Z,87
2023-04-30T04:59:02.182Z,86.9
2023-04-30T05:00:01.971Z,86.9
2023-04-30T05:01:01.958Z,86.9
2023-04-30T05:02:02.719Z,86.9
2023-04-30T05:03:02.986Z,87
2023-04-30T05:04:02.631Z,87
2023-04-30T05:05:01.360Z,86.9
2023-04-30T05:07:03.393Z,86.8
2023-04-30T05:08:02.426Z,86.7
2023-04-30T05:09:01.614Z,86.8
2023-04-30T05:10:01.380Z,86.9
2023-04-30T05:11:02.099Z,87
2023-04-30T05:12:01.519Z,87
2023-04-30T05:13:02.132Z,87
2023-04-30T05:14:03.846Z,87.1
2023-04-30T05:15:03.363Z,87
2023-04-30T05:16:01.452Z,87
2023-04-30T05:17:02.569Z,87
2023-04-30T05:18:01.637Z,87
2023-04-30T05:19:03.204Z,87
2023-04-30T05:20:02.001Z,87
2023-04-30T05:21:03.370Z,86.9
2023-04-30T05:22:02.313Z,86.9
2023-04-30T05:23:02.204Z,86.9
2023-04-30T05:24:01.914Z,86.7
2023-04-30T05:25:01.765Z,86.6
2023-04-30T05:26:01.356Z,86.5
2023-04-30T05:27:03.837Z,86.4
2023-04-30T05:28:02.256Z,86.3
2023-04-30T05:29:01.913Z,85.9
2023-04-30T05:30:01.515Z,85.5
2023-04-30T05:31:02.260Z,84.9
2023-04-30T05:32:03.826Z,84.7
2023-04-30T05:33:01.646Z,84.8
2023-04-30T05:34:02.264Z,85
2023-04-30T05:35:01.852Z,85
2023-04-30T05:36:01.466Z,84.5
2023-04-30T05:37:02.154Z,84.2
2023-04-30T05:38:01.441Z,84.4
2023-04-30T05:39:02.243Z,84.3
2023-04-30T05:40:01.368Z,84
2023-04-30T05:41:03.836Z,83.8
2023-04-30T05:42:01.843Z,83.5
2023-04-30T05:43:01.457Z,83.3
2023-04-30T05:44:03.680Z,83.4
2023-04-30T05:45:02.094Z,83
2023-04-30T05:46:01.609Z,82.8
2023-04-30T05:47:03.914Z,82.8
2023-04-30T05:48:03.556Z,82.5
2023-04-30T05:49:03.129Z,82.4
2023-04-30T05:50:03.693Z,82.2
2023-04-30T05:51:01.601Z,82.2
2023-04-30T05:52:02.163Z,82.3
2023-04-30T05:53:01.868Z,82.2
2023-04-30T05:54:01.607Z,82.3
2023-04-30T05:55:01.448Z,82.3
2023-04-30T05:56:02.017Z,82.6
2023-04-30T05:57:01.607Z,82.4
2023-04-30T05:58:02.161Z,82.2
2023-04-30T05:59:01.853Z,82
2023-04-30T06:00:01.465Z,81.8
2023-04-30T06:01:01.647Z,82
2023-04-30T06:02:02.290Z,82.2
2023-04-30T06:03:02.020Z,82.4
2023-04-30T06:04:01.795Z,82
2023-04-30T06:05:02.313Z,81.8
2023-04-30T06:06:03.635Z,81.5
2023-04-30T06:07:01.597Z,81.4
2023-04-30T06:08:02.248Z,80.9
2023-04-30T06:09:02.008Z,81
2023-04-30T06:10:01.926Z,80.4
2023-04-30T06:11:03.364Z,80.7
2023-04-30T06:12:01.292Z,80.7
2023-04-30T06:13:02.322Z,80.7
2023-04-30T06:14:03.682Z,80.7
2023-04-30T06:15:01.852Z,81
2023-04-30T06:16:01.705Z,80.6
2023-04-30T06:17:01.417Z,80.7
2023-04-30T06:18:02.209Z,80.7
2023-04-30T06:19:02.266Z,81.5
2023-04-30T06:20:01.763Z,81.8
2023-04-30T06:21:01.799Z,81.7
2023-04-30T06:22:02.088Z,81.6
2023-04-30T06:23:01.541Z,81.6
2023-04-30T06:24:01.991Z,81.2
2023-04-30T06:25:01.560Z,81.6
2023-04-30T06:26:02.017Z,80.9
2023-04-30T06:27:03.111Z,81
2023-04-30T06:28:01.935Z,80.5
2023-04-30T06:29:01.442Z,79.9
2023-04-30T06:30:01.916Z,80.1
2023-04-30T06:31:01.480Z,80.4
2023-04-30T06:32:04.296Z,80.8
2023-04-30T06:33:02.198Z,80.5
2023-04-30T06:34:02.255Z,79.9
2023-04-30T06:35:01.852Z,80.2
2023-04-30T06:36:01.534Z,80.6
2023-04-30T06:37:02.101Z,80.6
2023-04-30T06:38:02.668Z,80
2023-04-30T06:39:01.382Z,79.6
2023-04-30T06:40:01.927Z,79.4
2023-04-30T06:41:01.531Z,79.2
2023-04-30T06:42:01.995Z,79.2
2023-04-30T06:43:01.607Z,79.5
2023-04-30T06:44:02.169Z,79.5
2023-04-30T06:45:01.757Z,79.1
2023-04-30T06:46:03.208Z,79
2023-04-30T06:47:02.086Z,79.3
2023-04-30T06:48:01.648Z,79.3
2023-04-30T06:49:02.237Z,79
2023-04-30T06:50:01.840Z,78.8
2023-04-30T06:51:01.446Z,79.2
2023-04-30T06:52:03.820Z,79.5
2023-04-30T06:53:01.677Z,80.3
2023-04-30T06:54:02.237Z,79.8
2023-04-30T06:55:01.830Z,79.6
2023-04-30T06:56:01.444Z,79.6
2023-04-30T06:57:02.063Z,78
2023-04-30T06:58:01.768Z,78.7
2023-04-30T06:59:01.434Z,79.3
2023-04-30T07:00:01.988Z,79.7
2023-04-30T07:01:01.707Z,78.6
2023-04-30T07:02:01.724Z,78.7
2023-04-30T07:03:02.451Z,78.2
2023-04-30T07:04:01.542Z,78.8
2023-04-30T07:05:03.830Z,78.6
2023-04-30T07:06:01.882Z,79
2023-04-30T07:07:01.514Z,79.8
2023-04-30T07:08:02.737Z,79.3
2023-04-30T07:09:02.114Z,78.7
2023-04-30T07:10:02.318Z,78.3
2023-04-30T07:11:02.073Z,78
2023-04-30T07:12:01.696Z,77.7
2023-04-30T07:13:01.397Z,77
2023-04-30T07:14:02.191Z,77.2
2023-04-30T07:15:01.934Z,76.9
2023-04-30T07:16:01.871Z,76.2
2023-04-30T07:17:01.358Z,77.1
2023-04-30T07:18:02.759Z,77
2023-04-30T07:19:03.700Z,76.4
2023-04-30T07:20:01.623Z,76.6
2023-04-30T07:21:01.422Z,77.6
2023-04-30T07:22:01.422Z,76.1
2023-04-30T07:23:04.073Z,75.6
2023-04-30T07:24:01.832Z,76.7
2023-04-30T07:25:01.608Z,75.8
2023-04-30T07:26:02.253Z,75
2023-04-30T07:27:02.075Z,76
2023-04-30T07:28:02.801Z,74.8
2023-04-30T07:29:01.841Z,75.2
2023-04-30T07:30:03.100Z,74.9
2023-04-30T07:31:02.085Z,74
2023-04-30T07:32:03.653Z,73.6
2023-04-30T07:33:02.955Z,73.6
2023-04-30T07:34:03.266Z,73
2023-04-30T07:35:03.914Z,74.8
2023-04-30T07:36:01.674Z,74.4
2023-04-30T07:37:02.155Z,74
2023-04-30T07:38:01.784Z,74.4
2023-04-30T07:39:02.256Z,73.7
2023-04-30T07:40:01.770Z,74.2
2023-04-30T07:41:02.319Z,74.3
2023-04-30T07:42:01.739Z,73.6
2023-04-30T07:43:03.928Z,74.3
2023-04-30T07:44:01.777Z,73.9
2023-04-30T07:45:02.241Z,74.3
2023-04-30T07:46:01.806Z,75
2023-04-30T07:47:04.038Z,75.4
2023-04-30T07:48:01.868Z,74.9
2023-04-30T07:49:02.249Z,74.3
2023-04-30T07:50:01.764Z,74
2023-04-30T07:51:02.474Z,74.6
2023-04-30T07:52:01.773Z,75.5
2023-04-30T07:53:01.363Z,74.9
2023-04-30T07:54:01.958Z,74.6
2023-04-30T07:56:01.873Z,75
2023-04-30T07:58:01.844Z,75.2
2023-04-30T07:59:02.318Z,74.6
2023-04-30T08:00:03.549Z,75.1
2023-04-30T08:01:01.385Z,74.6
2023-04-30T08:02:03.582Z,74.8
2023-04-30T08:03:01.657Z,74.7
2023-04-30T08:04:01.918Z,73.5
2023-04-30T08:05:01.364Z,73.9
2023-04-30T08:06:01.950Z,74.3
2023-04-30T08:07:01.453Z,74.6
2023-04-30T08:08:01.957Z,74.5
2023-04-30T08:09:01.451Z,74.3
2023-04-30T08:10:01.934Z,74
2023-04-30T08:11:01.459Z,74.1
2023-04-30T08:12:02.028Z,74
2023-04-30T08:13:01.552Z,74
2023-04-30T08:14:03.804Z,74
2023-04-30T08:15:01.608Z,74.6
2023-04-30T08:16:02.215Z,74.3
2023-04-30T08:17:01.726Z,74
2023-04-30T08:18:02.266Z,73.9
2023-04-30T08:19:01.779Z,73.9
2023-04-30T08:20:02.355Z,73.7
2023-04-30T08:21:01.940Z,74
2023-04-30T08:22:03.211Z,73.7
2023-04-30T08:23:02.011Z,74.1
2023-04-30T08:24:01.546Z,73.9
2023-04-30T08:25:02.103Z,73.5
2023-04-30T08:26:01.618Z,73.3
2023-04-30T08:27:02.088Z,72.5
2023-04-30T08:28:01.603Z,73
2023-04-30T08:29:02.164Z,73
2023-04-30T08:30:01.706Z,74.1
2023-04-30T08:31:02.166Z,74.5
2023-04-30T08:32:01.824Z,73.1
2023-04-30T08:33:02.377Z,73.2
2023-04-30T08:34:01.850Z,72.6
2023-04-30T08:35:01.490Z,73.3
2023-04-30T08:36:02.005Z,73.1
2023-04-30T08:37:03.198Z,73.6
2023-04-30T08:38:02.161Z,73.5
2023-04-30T08:39:01.788Z,74
2023-04-30T08:40:02.990Z,74.6
2023-04-30T08:41:02.020Z,73.2
2023-04-30T08:42:01.892Z,72.1
2023-04-30T08:43:01.458Z,72.6
2023-04-30T08:44:02.019Z,71.9
2023-04-30T08:45:03.487Z,71.6
2023-04-30T08:46:01.512Z,72.7
2023-04-30T08:47:03.704Z,73.7
2023-04-30T08:48:02.247Z,73.3
2023-04-30T08:49:01.929Z,72.7
2023-04-30T08:50:03.301Z,71.3
2023-04-30T08:51:02.010Z,70.7
2023-04-30T08:52:01.529Z,72.1
2023-04-30T08:53:02.248Z,72.8
2023-04-30T08:54:01.871Z,72.2
2023-04-30T08:55:01.637Z,71.4
2023-04-30T08:56:04.000Z,71.3
2023-04-30T08:57:02.003Z,71.1
2023-04-30T08:58:01.931Z,71.3
2023-04-30T08:59:01.546Z,70.6
2023-04-30T09:00:02.111Z,70.5
2023-04-30T09:01:01.607Z,70.7
2023-04-30T09:02:02.965Z,72
2023-04-30T09:03:03.006Z,71.2
2023-04-30T09:04:03.835Z,72
2023-04-30T09:05:01.458Z,71.8
2023-04-30T09:06:02.047Z,72.6
2023-04-30T09:07:03.602Z,71.1
2023-04-30T09:08:04.668Z,71.6
2023-04-30T09:09:02.275Z,70.2
2023-04-30T09:10:01.931Z,70.5
2023-04-30T09:11:01.648Z,70.6
2023-04-30T09:12:02.249Z,69.3
2023-04-30T09:13:02.020Z,68.7
2023-04-30T09:14:01.697Z,68.6
2023-04-30T09:15:02.331Z,68.2
2023-04-30T09:16:01.878Z,67.8
2023-04-30T09:17:01.438Z,67.1
2023-04-30T09:18:04.037Z,67.7
2023-04-30T09:19:02.255Z,66.8
2023-04-30T09:20:02.109Z,67.2
2023-04-30T09:21:02.065Z,68.9
2023-04-30T09:22:01.846Z,69
2023-04-30T09:23:03.235Z,69.3
2023-04-30T09:24:02.123Z,67.6
2023-04-30T09:25:03.440Z,67.6
2023-04-30T09:26:01.486Z,68.7
2023-04-30T09:27:04.106Z,68.5
2023-04-30T09:28:02.097Z,67.1
2023-04-30T09:29:01.780Z,66.2
2023-04-30T09:30:01.514Z,65.1
2023-04-30T09:31:02.369Z,68
2023-04-30T09:32:02.055Z,67.3
2023-04-30T09:33:01.439Z,66.9
2023-04-30T09:34:02.202Z,65.8
2023-04-30T09:35:01.919Z,65.2
2023-04-30T09:36:01.613Z,66.2
2023-04-30T09:37:02.850Z,66.3
2023-04-30T09:38:03.115Z,66.3
2023-04-30T09:39:02.269Z,65.4
2023-04-30T09:40:02.081Z,65
2023-04-30T09:41:01.681Z,66.1
2023-04-30T09:42:01.518Z,66
2023-04-30T09:43:02.254Z,65.4
2023-04-30T09:44:01.934Z,65.7
2023-04-30T09:45:01.369Z,66.1
2023-04-30T09:46:02.166Z,64.2
2023-04-30T09:47:01.899Z,63.2
2023-04-30T09:48:13.096Z,62.6
2023-04-30T09:49:03.120Z,64.3
2023-04-30T09:50:03.872Z,65.8
2023-04-30T09:51:03.871Z,64.6
2023-04-30T09:53:02.248Z,64.4
2023-04-30T09:54:02.334Z,65.1
2023-04-30T09:55:01.557Z,64.9
2023-04-30T09:56:01.527Z,64.5
2023-04-30T09:57:02.140Z,64.6
2023-04-30T09:58:02.255Z,67.4
2023-04-30T09:59:01.693Z,66.8
2023-04-30T10:00:03.851Z,66.5
2023-04-30T10:01:01.695Z,67.1
2023-04-30T10:02:02.114Z,66.2
2023-04-30T10:03:03.247Z,66
2023-04-30T10:04:03.857Z,65.5
2023-04-30T10:05:01.658Z,66.4
2023-04-30T10:06:02.108Z,66.1
2023-04-30T10:07:01.456Z,64.5
2023-04-30T10:08:01.933Z,65
2023-04-30T10:09:01.461Z,63.7
2023-04-30T10:10:03.613Z,64.1
2023-04-30T10:11:01.391Z,63.9
2023-04-30T10:12:01.851Z,64
2023-04-30T10:13:01.375Z,62.4
2023-04-30T10:14:03.525Z,63.3
2023-04-30T10:15:02.338Z,64.4
2023-04-30T10:16:01.853Z,61.5
2023-04-30T10:17:02.471Z,62
2023-04-30T10:18:01.752Z,62.5
2023-04-30T10:19:02.180Z,61.5
2023-04-30T10:20:01.691Z,62.4
2023-04-30T10:21:02.198Z,65.8
2023-04-30T10:22:01.619Z,64.6
2023-04-30T10:23:02.161Z,65.6
2023-04-30T10:24:01.604Z,63.6
2023-04-30T10:25:02.087Z,63.4
2023-04-30T10:26:01.644Z,64
2023-04-30T10:27:03.775Z,64.3
2023-04-30T10:28:03.985Z,65.1
2023-04-30T10:29:02.003Z,64.5
2023-04-30T10:30:03.200Z,63.9
2023-04-30T10:31:02.049Z,63.4
2023-04-30T10:32:01.589Z,61.9
2023-04-30T10:33:01.946Z,63.2
2023-04-30T10:34:03.121Z,62.2
2023-04-30T10:35:01.930Z,62.9
2023-04-30T10:36:01.368Z,62.4
2023-04-30T10:37:01.969Z,61.7
2023-04-30T10:38:03.040Z,62
2023-04-30T10:39:01.844Z,63.6
2023-04-30T10:40:03.036Z,62.5
2023-04-30T10:41:01.844Z,62.3
2023-04-30T10:43:01.863Z,62.1
2023-04-30T10:44:02.421Z,63
2023-04-30T10:45:01.768Z,61.2
2023-04-30T10:46:02.351Z,60.1
2023-04-30T10:47:01.860Z,60.6
2023-04-30T10:48:02.356Z,62.4
2023-04-30T10:49:01.797Z,60.7
2023-04-30T10:50:02.273Z,60
2023-04-30T10:51:03.436Z,61.5
2023-04-30T10:52:02.247Z,60.2
2023-04-30T10:53:01.780Z,62.4
2023-04-30T10:54:03.929Z,61.8
2023-04-30T10:55:01.677Z,63
2023-04-30T10:56:03.834Z,62
2023-04-30T10:57:01.684Z,62.4
2023-04-30T10:58:02.179Z,63.2
2023-04-30T10:59:01.688Z,61.2
2023-04-30T11:00:02.294Z,61.4
2023-04-30T11:01:01.852Z,61.8
2023-04-30T11:02:01.457Z,65.1
2023-04-30T11:03:02.979Z,62.9
2023-04-30T11:04:01.909Z,62.8
2023-04-30T11:05:02.379Z,62.1
2023-04-30T11:06:04.024Z,63
2023-04-30T11:07:02.039Z,62.1
2023-04-30T11:08:02.041Z,62.7
2023-04-30T11:09:02.218Z,62.5
2023-04-30T11:10:01.806Z,63.4
2023-04-30T11:11:03.881Z,59.7
2023-04-30T11:12:01.621Z,61.3
2023-04-30T11:13:02.181Z,61.1
2023-04-30T11:14:02.019Z,60.5
2023-04-30T11:15:01.387Z,61.7
2023-04-30T11:16:01.917Z,62.2
2023-04-30T11:17:03.142Z,61.6
2023-04-30T11:18:02.053Z,62.7
2023-04-30T11:19:01.534Z,62.2
2023-04-30T11:20:02.130Z,62.5
2023-04-30T11:21:01.635Z,62
2023-04-30T11:22:02.112Z,61.5
2023-04-30T11:23:03.538Z,60.4
2023-04-30T11:24:02.344Z,60.7
2023-04-30T11:25:01.789Z,61
2023-04-30T11:26:02.354Z,61.8
2023-04-30T11:27:03.600Z,62.2
2023-04-30T11:28:01.392Z,61.2
2023-04-30T11:29:01.897Z,59.4
2023-04-30T11:30:01.409Z,60.5
2023-04-30T11:31:01.924Z,60.8
2023-04-30T11:32:01.457Z,60.3
2023-04-30T11:33:01.936Z,60.2
2023-04-30T11:34:04.027Z,59.8
2023-04-30T11:35:01.785Z,61.6
2023-04-30T11:36:02.335Z,61
2023-04-30T11:37:01.777Z,62.4
2023-04-30T11:38:02.285Z,59.8
2023-04-30T11:39:01.787Z,59.4
2023-04-30T11:40:04.087Z,60.8
2023-04-30T11:41:01.779Z,59.3
2023-04-30T11:42:01.365Z,59.8
2023-04-30T11:43:01.858Z,58.6
2023-04-30T11:44:01.386Z,59.8
2023-04-30T11:45:03.521Z,58.9
2023-04-30T11:46:01.393Z,59.9
2023-04-30T11:47:02.008Z,60
2023-04-30T11:48:01.395Z,59.6
2023-04-30T11:49:03.561Z,59.5
2023-04-30T11:50:01.373Z,60.9
2023-04-30T11:51:01.928Z,59.5
2023-04-30T11:52:01.359Z,60.4
2023-04-30T11:53:01.841Z,59.5
2023-04-30T11:54:01.356Z,60
2023-04-30T11:55:01.856Z,60.1
2023-04-30T11:56:01.366Z,61.1
2023-04-30T11:57:01.917Z,58.6
2023-04-30T11:58:01.368Z,59.6
2023-04-30T11:59:01.916Z,59.7
2023-04-30T12:00:03.046Z,58
2023-04-30T12:01:01.844Z,57.5
2023-04-30T12:02:01.366Z,58.1
2023-04-30T12:03:02.143Z,58.1
2023-04-30T12:04:01.418Z,57.5
2023-04-30T12:05:02.042Z,58.8
2023-04-30T12:06:01.512Z,58.8
2023-04-30T12:07:01.921Z,58
2023-04-30T12:08:01.441Z,57.7
2023-04-30T12:09:01.918Z,58.3
2023-04-30T12:10:03.107Z,58.6
2023-04-30T12:11:03.606Z,57.2
2023-04-30T12:12:01.447Z,57.3
2023-04-30T12:13:03.754Z,58.2
2023-04-30T12:14:01.601Z,59.1
2023-04-30T12:15:02.337Z,58.7
2023-04-30T12:16:03.510Z,57.8
2023-04-30T12:17:02.369Z,56.7
2023-04-30T12:18:02.522Z,58.1
2023-04-30T12:19:01.750Z,58.8
2023-04-30T12:20:01.856Z,58.2
2023-04-30T12:21:01.445Z,59
2023-04-30T12:22:01.846Z,57.2
2023-04-30T12:23:02.157Z,57.8
2023-04-30T12:24:03.416Z,54.8
2023-04-30T12:25:01.562Z,57.2
2023-04-30T12:26:01.994Z,58
2023-04-30T12:27:01.613Z,56.2
2023-04-30T12:28:02.721Z,57.8
2023-04-30T12:29:02.159Z,58.4
2023-04-30T12:30:01.769Z,57.8
2023-04-30T12:31:02.252Z,56.6
2023-04-30T12:32:01.779Z,56.9
2023-04-30T12:33:01.382Z,56.1
2023-04-30T12:34:02.177Z,55.8
2023-04-30T12:35:01.833Z,55.7
2023-04-30T12:36:01.498Z,55.1
2023-04-30T12:37:02.145Z,56.9
2023-04-30T12:38:03.760Z,55.1
2023-04-30T12:39:01.936Z,57
2023-04-30T12:40:03.835Z,56.6
2023-04-30T12:41:03.131Z,56
2023-04-30T12:42:01.808Z,56.4
2023-04-30T12:43:01.691Z,56.9
2023-04-30T12:44:01.355Z,57.4
2023-04-30T12:45:03.918Z,57.8
2023-04-30T12:46:02.238Z,55.8
2023-04-30T12:47:01.701Z,56.5
2023-04-30T12:48:01.515Z,55.6
2023-04-30T12:50:02.189Z,56.5
2023-04-30T12:51:02.026Z,56.4
2023-04-30T12:52:01.936Z,56.9
2023-04-30T12:53:01.804Z,56.9
2023-04-30T12:54:01.443Z,55.6
2023-04-30T12:55:02.140Z,57.2
2023-04-30T12:56:01.929Z,58.3
2023-04-30T12:57:01.793Z,55.7
2023-04-30T12:58:01.458Z,56.1
2023-04-30T12:59:01.709Z,57
2023-04-30T13:00:01.447Z,55.2
2023-04-30T13:01:02.316Z,55.5
2023-04-30T13:02:02.212Z,57.9
2023-04-30T13:03:02.422Z,57
2023-04-30T13:04:01.785Z,56.8
2023-04-30T13:05:02.136Z,57.7
2023-04-30T13:06:03.480Z,58
2023-04-30T13:07:01.460Z,57.8
2023-04-30T13:08:02.012Z,57.1
2023-04-30T13:09:01.377Z,57.4
2023-04-30T13:10:02.104Z,58.3
2023-04-30T13:11:01.854Z,57.2
2023-04-30T13:12:01.642Z,55.9
2023-04-30T13:13:03.311Z,55.6
2023-04-30T13:14:02.349Z,54.1
2023-04-30T13:15:03.727Z,56.2
2023-04-30T13:16:03.458Z,56.8
2023-04-30T13:17:02.090Z,56.8
2023-04-30T13:18:01.774Z,57.7
2023-04-30T13:20:02.251Z,56.9
2023-04-30T13:20:06.065Z,56.4
2023-04-30T13:21:01.957Z,56.8
2023-04-30T13:22:01.778Z,56.5
2023-04-30T13:23:01.550Z,55
2023-04-30T13:24:01.862Z,56.8
2023-04-30T13:25:02.098Z,57.3
2023-04-30T13:26:02.037Z,56.6
2023-04-30T13:27:01.886Z,57.1
2023-04-30T13:28:01.536Z,57.2
2023-04-30T13:30:02.284Z,56.3
2023-04-30T13:31:02.003Z,56.6
2023-04-30T13:32:01.778Z,57
2023-04-30T13:33:02.131Z,58.5
2023-04-30T13:34:01.408Z,58.2